Time;durP1;ratioP1;P1;durP2;ratioP2;P2;SDS_P1;SDS_P2;PMS_P1;PMS_P2;Temp;Humidity;BMP_temperature;BMP_pressure;BME280_temperature;BME280_humidity;BME280_pressure;Samples;Min_cycle;Max_cycle;Signal;HPM_P1;HPM_P2
2022/02/01 00:01:54;;;;;;;0.00;0.00;;;2.20;99.90;;;;;;6094277;23;20027;-88
2022/02/01 00:04:48;;;;;;;0.00;0.00;;;2.20;99.90;;;;;;6127593;23;20800;-88
2022/02/01 00:07:46;;;;;;;0.00;0.00;;;2.20;99.90;;;;;;6133164;23;20024;-89
2022/02/01 00:16:00;;;;;;;0.00;0.00;;;1.90;99.90;;;;;;6133241;23;20012;-88
2022/02/01 00:37:08;;;;;;;0.00;0.00;;;1.90;99.90;;;;;;6149343;23;20056;-88
2022/02/01 00:39:44;;;;;;;0.00;0.00;;;1.90;99.90;;;;;;6103905;23;20005;-89
2022/02/01 00:42:14;;;;;;;;;;;2.00;99.90;;;;;;6106242;23;20033;-89
2022/02/01 00:44:40;;;;;;;0.00;0.00;;;2.00;99.90;;;;;;6126908;23;20375;-88
2022/02/01 00:47:05;;;;;;;0.00;0.00;;;1.90;99.90;;;;;;6101714;23;20013;-89
2022/02/01 00:49:33;;;;;;;0.00;0.00;;;1.70;99.90;;;;;;6101987;23;20338;-88
2022/02/01 00:51:58;;;;;;;0.65;0.65;;;1.90;99.90;;;;;;6124941;23;20077;-89
2022/02/01 00:54:24;;;;;;;0.00;0.00;;;1.90;99.90;;;;;;6101954;23;20185;-88
2022/02/01 00:56:50;;;;;;;0.38;0.38;;;1.80;99.90;;;;;;6101509;23;20017;-89
2022/02/01 00:59:15;;;;;;;1.13;1.13;;;1.70;99.90;;;;;;6101571;23;20572;-88
2022/02/01 01:01:41;;;;;;;0.00;0.00;;;1.60;99.90;;;;;;6089408;23;20036;-88
2022/02/01 01:04:06;;;;;;;0.00;0.00;;;1.60;99.90;;;;;;6101738;23;20040;-88
2022/02/01 01:06:32;;;;;;;0.00;0.00;;;1.80;99.90;;;;;;6102778;23;20036;-88
2022/02/01 01:08:57;;;;;;;0.00;0.00;;;1.80;99.90;;;;;;6102374;23;20024;-89
2022/02/01 01:11:23;;;;;;;0.00;0.00;;;1.90;99.90;;;;;;6101557;23;20009;-88
2022/02/01 01:14:28;;;;;;;0.00;0.00;;;1.90;99.90;;;;;;6098024;23;20025;-89
2022/02/01 01:43:30;;;;;;;0.00;0.00;;;2.10;99.90;;;;;;6133391;23;20012;-89
2022/02/01 01:44:22;;;;;;;0.00;0.00;;;2.20;99.90;;;;;;6132684;23;20028;-88
2022/02/01 01:55:00;;;;;;;0.00;0.00;;;2.30;99.90;;;;;;6134557;23;20449;-88
2022/02/01 01:57:26;;;;;;;0.00;0.00;;;2.30;99.90;;;;;;6101635;23;20013;-87
2022/02/01 01:59:51;;;;;;;0.00;0.00;;;2.40;99.90;;;;;;6102187;23;20012;-87
2022/02/01 02:02:17;;;;;;;0.00;0.00;;;2.30;99.90;;;;;;6126161;23;20013;-88
2022/02/01 02:04:42;;;;;;;0.00;0.00;;;2.20;99.90;;;;;;6126618;23;20017;-88
2022/02/01 02:07:08;;;;;;;0.00;0.00;;;2.30;99.90;;;;;;6101472;23;20012;-89
2022/02/01 02:09:34;;;;;;;0.00;0.00;;;2.30;99.90;;;;;;6103827;23;20496;-89
2022/02/01 02:12:13;;;;;;;0.00;0.00;;;2.30;99.90;;;;;;6101251;23;20335;-88
2022/02/01 02:14:48;;;;;;;0.00;0.00;;;2.30;99.90;;;;;;6108808;23;20398;-88
2022/02/01 02:17:14;;;;;;;0.00;0.00;;;2.30;99.90;;;;;;6129198;23;20314;-89
2022/02/01 02:19:39;;;;;;;0.00;0.00;;;2.40;99.90;;;;;;6104254;23;20032;-88
2022/02/01 02:22:06;;;;;;;0.00;0.00;;;2.20;99.90;;;;;;6102500;23;20043;-88
2022/02/01 02:24:33;;;;;;;0.00;0.00;;;2.20;99.90;;;;;;6102885;23;20093;-88
2022/02/01 02:26:59;;;;;;;0.00;0.00;;;2.30;99.90;;;;;;6103213;23;20010;-88
2022/02/01 02:29:25;;;;;;;0.00;0.00;;;2.40;99.90;;;;;;6103530;23;20013;-88
2022/02/01 02:31:51;;;;;;;0.00;0.00;;;2.40;99.90;;;;;;6102236;23;20016;-88
2022/02/01 02:34:18;;;;;;;0.00;0.00;;;2.40;99.90;;;;;;6103484;23;20318;-89
2022/02/01 02:36:55;;;;;;;0.00;0.00;;;2.50;99.90;;;;;;6102469;23;20017;-88
2022/02/01 02:39:29;;;;;;;0.00;0.00;;;2.50;99.90;;;;;;6104313;23;20092;-88
2022/02/01 02:47:20;;;;;;;0.00;0.00;;;2.50;99.90;;;;;;6135149;23;20206;-88
2022/02/01 02:49:46;;;;;;;0.00;0.00;;;2.40;99.90;;;;;;6125607;23;20421;-88
2022/02/01 02:52:12;;;;;;;0.00;0.00;;;2.40;99.90;;;;;;6101066;23;20017;-88
2022/02/01 02:54:37;;;;;;;0.00;0.00;;;2.50;99.90;;;;;;6102995;23;20645;-89
2022/02/01 02:57:05;;;;;;;0.00;0.00;;;2.50;99.90;;;;;;6102434;23;20504;-88
2022/02/01 02:59:30;;;;;;;0.00;0.00;;;2.50;99.90;;;;;;6103086;23;20579;-86
2022/02/01 03:01:56;;;;;;;0.00;0.00;;;2.50;99.90;;;;;;6101752;23;20015;-87
2022/02/01 03:04:23;;;;;;;0.00;0.00;;;2.50;99.90;;;;;;6103178;23;20013;-87
2022/02/01 03:06:49;;;;;;;0.00;0.00;;;2.50;99.90;;;;;;6101400;23;20020;-87
2022/02/01 03:09:15;;;;;;;0.00;0.00;;;2.50;99.90;;;;;;6102356;23;20001;-88
2022/02/01 03:11:41;;;;;;;0.00;0.00;;;2.50;99.90;;;;;;6101951;23;20521;-87
2022/02/01 03:14:22;;;;;;;0.00;0.00;;;2.50;99.90;;;;;;6101943;23;20006;-88
2022/02/01 03:16:58;;;;;;;0.00;0.00;;;2.50;99.90;;;;;;6108460;23;20451;-88
2022/02/01 03:22:08;;;;;;;0.00;0.00;;;2.50;99.90;;;;;;6132070;23;20024;-89
2022/02/01 03:24:33;;;;;;;0.77;0.73;;;2.60;99.90;;;;;;6101741;23;20005;-88
2022/02/01 03:26:59;;;;;;;0.00;0.00;;;2.60;99.90;;;;;;6101095;23;20012;-89
2022/02/01 03:29:24;;;;;;;0.00;0.00;;;2.60;99.90;;;;;;6100021;23;20013;-88
2022/02/01 03:31:50;;;;;;;0.00;0.00;;;2.60;99.90;;;;;;6102187;23;20012;-86
2022/02/01 03:34:16;;;;;;;0.00;0.00;;;2.60;99.90;;;;;;6100656;23;20033;-86
2022/02/01 03:36:41;;;;;;;0.00;0.00;;;2.60;99.90;;;;;;6124080;23;20017;-86
2022/02/01 03:39:07;;;;;;;0.00;0.00;;;2.60;99.90;;;;;;6100639;23;20016;-86
2022/02/01 03:41:32;;;;;;;0.00;0.00;;;2.60;99.90;;;;;;6100360;23;20005;-86
2022/02/01 03:44:00;;;;;;;0.20;0.20;;;2.60;99.90;;;;;;6100814;23;20070;-87
2022/02/01 03:46:25;;;;;;;0.00;0.00;;;2.60;99.90;;;;;;6101600;23;20407;-86
2022/02/01 03:48:51;;;;;;;0.00;0.00;;;2.60;99.90;;;;;;6101716;23;20615;-86
2022/02/01 03:51:16;;;;;;;0.00;0.00;;;2.60;99.90;;;;;;6099194;23;20535;-86
2022/02/01 03:53:42;;;;;;;0.00;0.00;;;2.60;99.90;;;;;;6100624;23;20027;-86
2022/02/01 03:56:07;;;;;;;0.00;0.00;;;2.60;99.90;;;;;;6100424;23;20033;-86
2022/02/01 03:58:33;;;;;;;0.85;0.85;;;2.60;99.90;;;;;;6121571;23;20013;-87
2022/02/01 04:00:59;;;;;;;0.00;0.00;;;2.50;99.90;;;;;;6099309;23;20016;-86
2022/02/01 04:03:24;;;;;;;0.00;0.00;;;2.60;99.90;;;;;;6100666;23;20028;-87
2022/02/01 04:05:50;;;;;;;0.00;0.00;;;2.60;99.90;;;;;;6100887;23;20087;-87
2022/02/01 04:08:18;;;;;;;0.00;0.00;;;2.60;99.90;;;;;;6125090;23;20024;-86
2022/02/01 04:10:45;;;;;;;0.00;0.00;;;2.60;99.90;;;;;;6099709;23;20020;-86
2022/02/01 04:13:10;;;;;;;0.00;0.00;;;2.60;99.90;;;;;;6099403;23;20020;-86
2022/02/01 04:15:36;;;;;;;0.00;0.00;;;2.60;99.90;;;;;;6099980;23;20417;-86
2022/02/01 04:18:01;;;;;;;0.00;0.00;;;2.50;99.90;;;;;;6101287;23;20013;-86
2022/02/01 04:20:27;;;;;;;0.00;0.00;;;2.50;99.90;;;;;;6100169;23;20020;-86
2022/02/01 04:22:53;;;;;;;0.00;0.00;;;2.50;99.90;;;;;;6101786;23;20428;-86
2022/02/01 04:25:19;;;;;;;0.00;0.00;;;2.50;99.90;;;;;;6076929;23;20073;-86
2022/02/01 04:27:44;;;;;;;0.00;0.00;;;2.50;99.90;;;;;;6100598;23;20457;-86
2022/02/01 04:30:12;;;;;;;0.00;0.00;;;2.50;99.90;;;;;;6100295;23;20445;-86
2022/02/01 04:32:41;;;;;;;0.15;0.15;;;2.50;99.90;;;;;;6100661;23;20385;-86
2022/02/01 04:35:08;;;;;;;0.00;0.00;;;2.60;99.90;;;;;;6123690;23;20015;-86
2022/02/01 04:37:34;;;;;;;0.00;0.00;;;2.60;99.90;;;;;;6099743;23;20453;-86
2022/02/01 04:40:00;;;;;;;0.00;0.00;;;2.60;99.90;;;;;;6125241;23;20013;-86
2022/02/01 04:42:31;;;;;;;0.00;0.00;;;2.50;99.90;;;;;;6100490;23;20452;-86
2022/02/01 04:44:58;;;;;;;0.00;0.00;;;2.50;99.90;;;;;;6098933;23;20013;-86
2022/02/01 04:47:29;;;;;;;0.00;0.00;;;2.50;99.90;;;;;;6124960;23;20009;-87
2022/02/01 04:49:54;;;;;;;0.00;0.00;;;2.50;99.90;;;;;;6102704;23;20036;-86
2022/02/01 04:52:20;;;;;;;0.00;0.00;;;2.40;99.90;;;;;;6095734;23;20117;-86
2022/02/01 04:54:45;;;;;;;0.00;0.00;;;2.40;99.90;;;;;;6100202;23;20072;-86
2022/02/01 04:57:11;;;;;;;0.00;0.00;;;2.40;99.90;;;;;;6099797;23;20021;-87
2022/02/01 04:59:36;;;;;;;0.00;0.00;;;2.50;99.90;;;;;;6094794;23;20028;-86
2022/02/01 05:02:02;;;;;;;0.00;0.00;;;2.50;99.90;;;;;;6099078;23;20028;-86
2022/02/01 05:04:28;;;;;;;0.00;0.00;;;2.50;99.90;;;;;;6099189;23;20421;-86
2022/02/01 05:06:54;;;;;;;0.00;0.00;;;2.50;99.90;;;;;;6099350;23;20012;-86
2022/02/01 05:09:21;;;;;;;0.00;0.00;;;2.50;99.90;;;;;;6101852;23;20008;-86
2022/02/01 05:11:48;;;;;;;0.00;0.00;;;2.50;99.90;;;;;;6100758;23;20020;-86
2022/02/01 05:14:18;;;;;;;0.00;0.00;;;2.40;99.90;;;;;;6125159;23;19998;-86
2022/02/01 05:16:58;;;;;;;0.00;0.00;;;2.50;99.90;;;;;;6126185;23;20009;-86
2022/02/01 05:22:02;;;;;;;0.00;0.00;;;2.50;99.90;;;;;;6123770;23;20009;-86
2022/02/01 05:24:27;;;;;;;0.00;0.00;;;2.50;99.90;;;;;;6102168;23;20679;-86
2022/02/01 05:26:54;;;;;;;0.00;0.00;;;2.50;99.90;;;;;;6124864;23;20016;-86
2022/02/01 05:29:20;;;;;;;0.00;0.00;;;2.50;99.90;;;;;;6124222;23;20024;-86
2022/02/01 05:31:49;;;;;;;0.00;0.00;;;2.50;99.90;;;;;;6123465;23;20388;-86
2022/02/01 05:34:15;;;;;;;0.00;0.00;;;2.50;99.90;;;;;;6124600;23;20009;-86
2022/02/01 05:36:40;;;;;;;0.00;0.00;;;2.50;99.90;;;;;;6098844;23;20131;-86
2022/02/01 05:39:17;;;;;;;0.00;0.00;;;2.60;99.90;;;;;;6124398;23;20013;-86
2022/02/01 05:41:57;;;;;;;0.00;0.00;;;2.60;99.90;;;;;;6122134;23;20029;-86
2022/02/01 05:44:23;;;;;;;0.00;0.00;;;2.50;99.90;;;;;;6101979;23;20438;-86
2022/02/01 05:46:48;;;;;;;0.00;0.00;;;2.50;99.90;;;;;;6101437;23;20063;-87
2022/02/01 05:49:14;;;;;;;0.00;0.00;;;2.60;99.90;;;;;;6101750;23;20001;-89
2022/02/01 05:51:40;;;;;;;0.00;0.00;;;2.70;99.90;;;;;;6096920;23;20013;-86
2022/02/01 05:54:05;;;;;;;0.00;0.00;;;2.70;99.90;;;;;;6101260;23;20096;-86
2022/02/01 05:56:31;;;;;;;0.10;0.10;;;2.70;99.90;;;;;;6083278;23;20008;-86
2022/02/01 05:58:57;;;;;;;0.00;0.00;;;2.60;99.90;;;;;;6100033;23;20076;-86
2022/02/01 06:01:22;;;;;;;0.00;0.00;;;2.50;99.90;;;;;;6100391;23;20081;-86
2022/02/01 06:03:48;;;;;;;0.00;0.00;;;2.60;99.90;;;;;;6099251;23;20043;-86
2022/02/01 06:06:14;;;;;;;0.00;0.00;;;2.60;99.90;;;;;;6101383;23;20035;-86
2022/02/01 06:08:39;;;;;;;0.00;0.00;;;2.60;99.90;;;;;;6102155;23;20025;-86
2022/02/01 06:11:05;;;;;;;0.00;0.00;;;2.60;99.90;;;;;;6101124;23;20017;-85
2022/02/01 06:13:38;;;;;;;10.23;2.90;;;2.60;99.90;;;;;;6101727;23;20013;-85
2022/02/01 06:16:04;;;;;;;0.00;0.00;;;2.60;99.90;;;;;;6103903;23;20334;-85
2022/02/01 06:18:29;;;;;;;0.00;0.00;;;2.60;99.90;;;;;;6102798;23;20017;-85
2022/02/01 06:20:55;;;;;;;0.00;0.00;;;2.60;99.90;;;;;;6100197;23;20234;-86
2022/02/01 06:23:21;;;;;;;0.00;0.00;;;2.60;99.90;;;;;;6125786;23;20020;-85
2022/02/01 06:25:51;;;;;;;0.00;0.00;;;2.60;99.90;;;;;;6101668;23;20017;-85
2022/02/01 06:28:21;;;;;;;0.00;0.00;;;2.50;99.90;;;;;;6112859;23;20501;-85
2022/02/01 06:30:51;;;;;;;0.00;0.00;;;2.60;99.90;;;;;;6107281;23;20021;-85
2022/02/01 06:33:17;;;;;;;0.00;0.00;;;2.60;99.90;;;;;;6100411;23;20438;-85
2022/02/01 06:35:42;;;;;;;0.00;0.00;;;2.60;99.90;;;;;;6099228;23;20016;-86
2022/02/01 06:38:08;;;;;;;0.00;0.00;;;2.60;99.90;;;;;;6100821;23;20053;-85
2022/02/01 06:40:34;;;;;;;0.00;0.00;;;2.60;99.90;;;;;;6098421;23;20009;-85
2022/02/01 06:43:00;;;;;;;0.00;0.00;;;2.60;99.90;;;;;;6126609;23;20023;-85
2022/02/01 06:45:26;;;;;;;0.00;0.00;;;2.70;99.90;;;;;;6124974;23;20076;-85
2022/02/01 06:47:52;;;;;;;0.00;0.00;;;2.60;99.90;;;;;;6100433;23;20387;-85
2022/02/01 06:50:20;;;;;;;0.00;0.00;;;2.70;99.90;;;;;;6085026;23;20009;-86
2022/02/01 06:52:54;;;;;;;0.00;0.00;;;2.60;99.90;;;;;;6102432;23;20092;-85
2022/02/01 06:55:31;;;;;;;0.00;0.00;;;2.70;99.90;;;;;;6098618;23;20036;-85
2022/02/01 06:57:58;;;;;;;0.00;0.00;;;2.70;99.90;;;;;;6104239;23;20043;-85
2022/02/01 07:00:23;;;;;;;0.00;0.00;;;2.70;99.90;;;;;;6099477;23;20043;-85
2022/02/01 07:02:49;;;;;;;0.00;0.00;;;2.70;99.90;;;;;;6100045;23;20017;-85
2022/02/01 07:05:17;;;;;;;0.00;0.00;;;2.70;99.90;;;;;;6099809;23;20040;-85
2022/02/01 07:07:42;;;;;;;0.00;0.00;;;2.70;99.90;;;;;;6125480;23;20013;-85
2022/02/01 07:10:08;;;;;;;0.75;0.75;;;2.70;99.90;;;;;;6101048;23;20079;-85
2022/02/01 07:12:34;;;;;;;0.00;0.00;;;2.70;99.90;;;;;;6111621;23;20064;-85
2022/02/01 07:14:59;;;;;;;0.00;0.00;;;2.80;99.90;;;;;;6100420;23;20366;-85
2022/02/01 07:17:25;;;;;;;0.00;0.00;;;2.80;99.90;;;;;;6084954;23;20013;-85
2022/02/01 07:19:50;;;;;;;0.00;0.00;;;2.80;99.90;;;;;;6086151;23;20033;-85
2022/02/01 07:22:16;;;;;;;0.00;0.00;;;2.80;99.90;;;;;;6124229;23;20035;-85
2022/02/01 07:24:55;;;;;;;0.00;0.00;;;2.80;99.90;;;;;;6102007;23;20073;-85
2022/02/01 07:27:37;;;;;;;0.00;0.00;;;2.90;99.90;;;;;;6105436;23;20080;-86
2022/02/01 07:30:11;;;;;;;0.00;0.00;;;2.80;99.90;;;;;;6108726;23;20033;-85
2022/02/01 07:32:37;;;;;;;0.00;0.00;;;2.90;99.90;;;;;;6101994;23;20071;-86
2022/02/01 07:35:03;;;;;;;0.00;0.00;;;2.90;99.90;;;;;;6101236;23;20009;-85
2022/02/01 07:37:29;;;;;;;0.10;0.10;;;2.90;99.90;;;;;;6088189;23;20005;-85
2022/02/01 07:39:55;;;;;;;0.00;0.00;;;3.00;99.90;;;;;;6122868;23;20013;-85
2022/02/01 07:42:23;;;;;;;0.00;0.00;;;3.00;99.90;;;;;;6100385;23;20029;-85
2022/02/01 07:44:49;;;;;;;0.00;0.00;;;3.00;99.90;;;;;;6100982;23;20016;-85
2022/02/01 07:47:28;;;;;;;0.00;0.00;;;3.00;99.90;;;;;;6086488;23;20084;-85
2022/02/01 07:49:54;;;;;;;0.00;0.00;;;3.10;99.90;;;;;;6148793;23;20260;-85
2022/02/01 07:52:20;;;;;;;0.00;0.00;;;3.00;99.90;;;;;;6101959;23;20518;-85
2022/02/01 07:54:46;;;;;;;0.00;0.00;;;3.10;99.90;;;;;;6110856;23;20136;-86
2022/02/01 07:57:11;;;;;;;0.00;0.00;;;3.10;99.90;;;;;;6100961;23;20031;-85
2022/02/01 07:59:41;;;;;;;0.00;0.00;;;3.10;99.90;;;;;;6095094;23;20032;-85
2022/02/01 08:02:17;;;;;;;0.00;0.00;;;3.10;99.90;;;;;;6124158;23;20346;-85
2022/02/01 08:04:43;;;;;;;0.00;0.00;;;3.10;99.90;;;;;;6103001;23;20016;-85
2022/02/01 08:07:09;;;;;;;0.00;0.00;;;3.10;99.90;;;;;;6100771;23;20393;-85
2022/02/01 08:09:38;;;;;;;0.00;0.00;;;3.20;99.90;;;;;;6101755;23;19997;-85
2022/02/01 08:12:13;;;;;;;0.00;0.00;;;3.20;99.90;;;;;;6102413;23;20519;-85
2022/02/01 08:25:07;;;;;;;0.00;0.00;;;3.30;99.90;;;;;;6101829;23;20493;-85
2022/02/01 08:27:33;;;;;;;0.00;0.00;;;3.30;99.90;;;;;;6098185;23;20067;-85
2022/02/01 08:29:58;;;;;;;0.00;0.00;;;3.30;99.90;;;;;;6098473;23;20406;-85
2022/02/01 08:32:24;;;;;;;0.00;0.00;;;3.30;99.90;;;;;;6092857;23;20013;-85
2022/02/01 08:34:50;;;;;;;0.00;0.00;;;3.40;99.90;;;;;;6123936;23;20021;-85
2022/02/01 08:37:15;;;;;;;0.00;0.00;;;3.40;99.90;;;;;;6098457;23;20051;-84
2022/02/01 08:39:41;;;;;;;0.00;0.00;;;3.40;99.90;;;;;;6098434;23;20090;-85
2022/02/01 08:42:07;;;;;;;0.00;0.00;;;3.40;99.90;;;;;;6100026;23;20017;-85
2022/02/01 08:44:34;;;;;;;0.00;0.00;;;3.40;99.90;;;;;;6125091;23;20028;-85
2022/02/01 08:47:00;;;;;;;0.00;0.00;;;3.40;99.90;;;;;;6102441;23;20017;-85
2022/02/01 08:49:25;;;;;;;0.00;0.00;;;3.40;99.90;;;;;;6124200;23;20311;-85
2022/02/01 08:52:04;;;;;;;0.00;0.00;;;3.50;99.90;;;;;;6124342;23;20373;-85
2022/02/01 08:54:31;;;;;;;0.00;0.00;;;3.50;99.90;;;;;;6104599;23;20382;-85
2022/02/01 08:59:41;;;;;;;0.00;0.00;;;3.60;99.90;;;;;;6132151;23;20016;-85
2022/02/01 09:02:07;;;;;;;0.05;0.05;;;3.60;99.90;;;;;;6098982;23;20012;-85
2022/02/01 09:04:32;;;;;;;0.00;0.00;;;3.60;99.90;;;;;;6101204;23;20066;-85
2022/02/01 09:06:59;;;;;;;0.00;0.00;;;3.50;99.90;;;;;;6099252;23;20016;-85
2022/02/01 09:09:25;;;;;;;0.00;0.00;;;3.60;99.90;;;;;;6124149;23;20224;-85
2022/02/01 09:11:51;;;;;;;0.00;0.00;;;3.60;99.90;;;;;;6100922;23;20021;-85
2022/02/01 09:14:16;;;;;;;0.00;0.00;;;3.70;99.90;;;;;;6100787;23;20269;-85
2022/02/01 09:16:42;;;;;;;0.00;0.00;;;3.70;99.90;;;;;;6100808;23;20010;-85
2022/02/01 09:19:08;;;;;;;0.10;0.10;;;3.70;99.90;;;;;;6101584;23;20037;-85
2022/02/01 09:21:33;;;;;;;9.23;2.17;;;3.70;99.90;;;;;;6097426;23;20513;-85
2022/02/01 09:23:59;;;;;;;0.00;0.00;;;3.80;99.90;;;;;;6099358;23;20017;-85
2022/02/01 09:26:24;;;;;;;0.00;0.00;;;3.70;99.90;;;;;;6098233;23;20009;-85
2022/02/01 09:28:50;;;;;;;0.00;0.00;;;3.70;99.90;;;;;;6085564;23;20071;-85
2022/02/01 09:31:16;;;;;;;0.00;0.00;;;3.60;99.90;;;;;;6146143;23;20385;-85
2022/02/01 09:33:42;;;;;;;0.00;0.00;;;3.80;99.90;;;;;;6080090;23;20112;-85
2022/02/01 09:36:08;;;;;;;0.00;0.00;;;3.80;99.90;;;;;;6122459;23;20104;-85
2022/02/01 09:38:34;;;;;;;0.00;0.00;;;3.90;99.90;;;;;;6109603;23;20478;-85
2022/02/01 09:41:00;;;;;;;0.00;0.00;;;3.80;99.90;;;;;;6122078;23;20009;-85
2022/02/01 09:43:26;;;;;;;0.00;0.00;;;3.80;99.90;;;;;;6099757;23;20092;-85
2022/02/01 09:45:55;;;;;;;0.00;0.00;;;3.80;99.90;;;;;;6098820;23;20009;-85
2022/02/01 09:48:21;;;;;;;0.00;0.00;;;3.90;99.90;;;;;;6094764;23;20068;-85
2022/02/01 09:50:46;;;;;;;0.00;0.00;;;3.90;99.90;;;;;;6109306;23;20013;-85
2022/02/01 09:53:12;;;;;;;0.00;0.00;;;4.00;99.90;;;;;;6121656;23;20361;-85
2022/02/01 09:55:38;;;;;;;0.25;0.25;;;4.00;99.90;;;;;;6098480;23;20083;-85
2022/02/01 09:58:04;;;;;;;0.00;0.00;;;4.00;99.90;;;;;;6099119;23;20450;-85
2022/02/01 10:00:36;;;;;;;0.00;0.00;;;4.00;99.90;;;;;;6100375;23;20020;-84
2022/02/01 10:03:03;;;;;;;0.00;0.00;;;4.00;99.90;;;;;;6098700;23;20523;-84
2022/02/01 10:05:29;;;;;;;0.00;0.00;;;4.00;99.90;;;;;;6099168;23;20029;-85
2022/02/01 10:07:56;;;;;;;0.00;0.00;;;4.10;99.90;;;;;;6100825;23;20087;-84
2022/02/01 10:10:25;;;;;;;0.00;0.00;;;4.10;99.90;;;;;;6097043;23;20024;-85
2022/02/01 10:13:14;;;;;;;0.20;0.20;;;4.10;99.90;;;;;;6100151;23;20040;-85
2022/02/01 10:16:10;;;;;;;0.00;0.00;;;4.10;99.90;;;;;;6102303;23;20024;-85
2022/02/01 10:18:36;;;;;;;0.00;0.00;;;4.10;99.90;;;;;;6106690;23;20461;-85
2022/02/01 10:21:11;;;;;;;0.00;0.00;;;4.10;99.90;;;;;;6095264;23;21085;-85
2022/02/01 10:23:39;;;;;;;0.00;0.00;;;4.20;99.90;;;;;;6097429;23;20021;-85
2022/02/01 10:26:09;;;;;;;0.00;0.00;;;4.10;99.90;;;;;;6087062;23;20401;-85
2022/02/01 10:31:27;;;;;;;15.23;7.40;;;4.20;99.90;;;;;;6127738;23;20063;-85
2022/02/01 10:34:02;;;;;;;11.02;6.18;;;4.20;99.90;;;;;;6125468;23;20023;-85
2022/02/01 10:36:37;;;;;;;10.68;6.60;;;4.20;99.90;;;;;;6100386;23;20013;-84
2022/02/01 10:39:04;;;;;;;12.48;6.82;;;4.20;99.90;;;;;;6125733;23;20013;-85
2022/02/01 10:41:30;;;;;;;12.82;7.70;;;4.20;99.90;;;;;;6100000;23;20029;-85
2022/02/01 10:43:56;;;;;;;16.48;8.23;;;4.20;99.90;;;;;;6100000;23;20025;-85
2022/02/01 10:46:23;;;;;;;16.70;8.65;;;4.20;99.90;;;;;;6102573;23;20365;-85
2022/02/01 10:48:49;;;;;;;14.98;6.10;;;4.30;99.90;;;;;;6101504;23;20041;-84
2022/02/01 10:51:16;;;;;;;13.43;8.40;;;4.20;99.90;;;;;;6099481;23;20031;-85
2022/02/01 10:53:42;;;;;;;14.77;6.10;;;4.30;99.90;;;;;;6102102;23;20489;-85
2022/02/01 10:56:14;;;;;;;11.70;6.35;;;4.20;99.90;;;;;;6083014;23;20009;-85
2022/02/01 10:58:40;;;;;;;12.05;6.05;;;4.30;99.90;;;;;;6047458;23;20027;-85
2022/02/01 11:01:06;;;;;;;13.05;7.13;;;4.30;99.90;;;;;;6099573;23;20017;-85
2022/02/01 11:03:32;;;;;;;15.30;7.95;;;4.30;99.90;;;;;;6089521;23;20017;-85
2022/02/01 11:06:55;;;;;;;14.85;6.43;;;4.40;99.90;;;;;;6105806;23;20020;-84
2022/02/01 11:09:21;;;;;;;9.82;5.63;;;4.40;99.90;;;;;;6088846;23;20093;-85
2022/02/01 11:11:59;;;;;;;12.55;6.35;;;4.40;99.90;;;;;;6088131;23;20021;-85
2022/02/01 11:14:25;;;;;;;8.43;6.13;;;4.40;99.90;;;;;;6111433;23;20013;-85
2022/02/01 11:17:07;;;;;;;9.07;5.65;;;4.50;99.90;;;;;;6125089;23;20013;-85
2022/02/01 11:19:54;;;;;;;9.50;6.70;;;4.60;99.90;;;;;;6123328;23;20442;-84
2022/02/01 11:22:29;;;;;;;7.85;5.47;;;4.60;99.90;;;;;;6101661;23;20017;-85
2022/02/01 11:25:15;;;;;;;8.90;6.13;;;4.60;99.90;;;;;;6105863;23;20116;-85
2022/02/01 11:28:00;;;;;;;7.22;3.85;;;4.70;99.90;;;;;;6105788;23;20013;-85
2022/02/01 11:30:36;;;;;;;5.82;4.40;;;4.80;99.90;;;;;;6151588;23;20009;-85
2022/02/01 11:33:01;;;;;;;;;;;4.80;99.90;;;;;;6126696;23;20027;-85
2022/02/01 11:35:27;;;;;;;5.90;3.40;;;4.80;99.90;;;;;;6123816;23;19908;-85
2022/02/01 11:38:13;;;;;;;5.95;4.18;;;4.80;99.90;;;;;;6101160;23;20033;-85
2022/02/01 11:40:41;;;;;;;;;;;4.80;99.90;;;;;;6129098;23;20091;-85
2022/02/01 11:43:09;;;;;;;5.53;3.30;;;4.80;99.90;;;;;;6122369;23;19908;-85
2022/02/01 11:45:39;;;;;;;5.82;3.55;;;4.80;99.90;;;;;;6098335;23;20013;-85
2022/02/01 11:48:24;;;;;;;4.60;3.15;;;4.90;99.90;;;;;;6096858;23;20065;-85
2022/02/01 11:51:11;;;;;;;4.97;2.88;;;4.90;99.90;;;;;;6149187;23;20033;-85
2022/02/01 11:53:41;;;;;;;5.25;3.28;;;5.00;99.90;;;;;;6124374;23;20097;-85
2022/02/01 11:56:08;;;;;;;3.85;2.42;;;5.00;99.90;;;;;;6100190;23;20009;-85
2022/02/01 11:58:37;;;;;;;3.92;2.22;;;5.00;99.90;;;;;;6086895;23;20362;-85
2022/02/01 12:01:07;;;;;;;4.72;1.90;;;5.00;99.90;;;;;;6124273;23;20017;-85
2022/02/01 12:03:40;;;;;;;4.68;2.00;;;5.10;99.90;;;;;;6099871;23;20005;-85
2022/02/01 12:06:10;;;;;;;3.70;2.80;;;5.10;99.90;;;;;;6101454;23;20031;-86
2022/02/01 12:08:38;;;;;;;3.15;2.08;;;5.10;99.90;;;;;;6122683;23;20349;-85
2022/02/01 12:11:08;;;;;;;3.70;2.25;;;5.10;99.90;;;;;;6096333;23;20017;-85
2022/02/01 12:13:35;;;;;;;4.25;2.63;;;5.20;99.90;;;;;;6101882;23;20378;-85
2022/02/01 12:16:02;;;;;;;3.58;2.50;;;5.20;99.90;;;;;;6099232;23;20413;-85
2022/02/01 12:18:34;;;;;;;3.55;2.45;;;5.30;99.90;;;;;;6124466;23;20092;-85
2022/02/01 12:21:05;;;;;;;5.65;3.35;;;5.30;99.90;;;;;;6145958;23;20021;-85
2022/02/01 12:23:31;;;;;;;5.43;3.65;;;5.30;99.90;;;;;;6150214;23;20017;-85
2022/02/01 12:26:00;;;;;;;3.10;2.45;;;5.30;99.90;;;;;;6097243;23;20021;-85
2022/02/01 12:28:27;;;;;;;2.65;1.73;;;5.30;99.90;;;;;;6100683;23;20059;-85
2022/02/01 12:31:04;;;;;;;3.70;2.28;;;5.40;99.90;;;;;;6098064;23;20079;-85
2022/02/01 12:33:29;;;;;;;4.63;3.17;;;5.40;99.90;;;;;;6102258;23;20073;-85
2022/02/01 12:35:55;;;;;;;3.55;2.40;;;5.40;99.90;;;;;;6099492;23;20096;-84
2022/02/01 12:38:24;;;;;;;4.35;2.42;;;5.50;99.90;;;;;;6098082;23;20346;-85
2022/02/01 12:41:03;;;;;;;4.82;3.13;;;5.40;99.90;;;;;;6100639;23;20342;-85
2022/02/01 12:43:33;;;;;;;3.22;2.13;;;5.50;99.90;;;;;;6125679;23;20358;-85
2022/02/01 12:48:30;;;;;;;6.43;1.98;;;5.50;99.90;;;;;;6124574;23;20040;-85
2022/02/01 12:51:05;;;;;;;4.70;3.75;;;5.60;99.90;;;;;;6099015;23;20036;-85
2022/02/01 12:53:41;;;;;;;3.88;2.70;;;5.50;99.90;;;;;;6099259;23;20021;-86
2022/02/01 12:56:19;;;;;;;3.93;3.17;;;5.60;99.90;;;;;;6100358;23;20033;-85
2022/02/01 12:58:53;;;;;;;6.75;2.60;;;5.60;99.90;;;;;;6100775;23;20264;-85
2022/02/01 13:01:34;;;;;;;4.68;2.97;;;5.60;99.90;;;;;;6075591;23;20061;-85
2022/02/01 13:04:00;;;;;;;3.15;2.53;;;5.60;99.90;;;;;;6124834;23;20020;-85
2022/02/01 13:06:27;;;;;;;4.70;3.60;;;5.60;99.90;;;;;;6100044;23;20017;-85
2022/02/01 13:14:58;;;;;;;3.65;2.70;;;5.70;99.90;;;;;;6124973;23;20108;-85
2022/02/01 13:20:12;;;;;;;3.67;3.03;;;5.70;99.90;;;;;;6127537;23;20093;-85
2022/02/01 13:22:57;;;;;;;4.10;2.88;;;5.80;99.90;;;;;;6104342;23;20017;-85
2022/02/01 13:25:45;;;;;;;4.65;4.00;;;5.80;99.90;;;;;;6101373;23;20009;-85
2022/02/01 13:28:13;;;;;;;5.30;3.80;;;5.80;99.90;;;;;;6128172;23;20063;-85
2022/02/01 13:30:44;;;;;;;5.45;4.43;;;5.80;99.90;;;;;;6099771;23;20013;-85
2022/02/01 13:33:16;;;;;;;4.78;3.65;;;5.80;99.90;;;;;;6098809;23;20320;-85
2022/02/01 13:35:45;;;;;;;7.25;4.55;;;5.90;99.90;;;;;;6124197;23;20013;-85
2022/02/01 13:38:12;;;;;;;4.60;3.70;;;5.90;99.90;;;;;;6099575;23;20009;-85
2022/02/01 13:40:39;;;;;;;5.60;3.90;;;5.90;99.90;;;;;;6096997;23;20012;-85
2022/02/01 13:43:21;;;;;;;6.28;3.40;;;5.90;99.90;;;;;;6100156;23;20013;-85
2022/02/01 13:45:48;;;;;;;5.20;3.65;;;5.90;99.90;;;;;;6097980;23;20009;-85
2022/02/01 13:48:21;;;;;;;5.28;3.70;;;5.90;99.90;;;;;;6097417;23;20047;-85
2022/02/01 13:50:47;;;;;;;5.60;4.40;;;5.90;99.90;;;;;;6122321;23;20009;-85
2022/02/01 13:53:13;;;;;;;4.95;3.17;;;6.00;99.90;;;;;;6098917;23;20025;-85
2022/02/01 13:55:40;;;;;;;5.88;4.13;;;6.00;99.90;;;;;;6098129;23;20481;-86
2022/02/01 13:58:08;;;;;;;4.45;3.65;;;6.00;99.90;;;;;;6123927;23;20025;-85
2022/02/01 14:00:38;;;;;;;6.40;5.13;;;6.10;99.90;;;;;;6124254;23;20010;-85
2022/02/01 14:03:19;;;;;;;11.20;3.47;;;6.10;99.90;;;;;;6100562;23;20024;-85
2022/02/01 14:34:57;;;;;;;10.13;4.95;;;6.30;99.90;;;;;;6125934;23;20446;-86
2022/02/01 14:37:37;;;;;;;13.63;9.13;;;6.30;99.90;;;;;;6097743;23;20397;-85
2022/02/01 14:45:42;;;;;;;14.73;8.65;;;6.40;99.90;;;;;;6118577;23;20036;-86
2022/02/01 14:48:08;;;;;;;12.98;6.55;;;6.40;99.90;;;;;;6100501;23;20017;-86
2022/02/01 14:50:34;;;;;;;15.38;9.38;;;6.40;99.90;;;;;;6099005;23;20460;-86
2022/02/01 14:52:59;;;;;;;19.52;12.13;;;6.50;99.90;;;;;;6100780;23;20024;-86
2022/02/01 14:55:35;;;;;;;28.63;18.02;;;6.50;99.90;;;;;;6100916;23;20509;-86
2022/02/01 15:03:53;;;;;;;16.45;9.00;;;6.60;99.90;;;;;;6133232;23;20028;-85
2022/02/01 15:11:57;;;;;;;26.15;15.45;;;6.70;99.90;;;;;;6132582;23;20016;-86
2022/02/01 15:14:25;;;;;;;18.50;10.13;;;6.70;99.90;;;;;;6107154;23;20342;-86
2022/02/01 15:16:51;;;;;;;20.75;15.27;;;6.70;99.90;;;;;;6125954;23;20476;-85
2022/02/01 15:19:16;;;;;;;20.92;10.77;;;6.80;99.90;;;;;;6101239;23;20017;-86
2022/02/01 15:21:42;;;;;;;29.25;16.83;;;6.90;99.90;;;;;;6097548;23;20506;-86
2022/02/01 15:24:08;;;;;;;20.65;11.18;;;6.90;99.90;;;;;;6100643;23;20411;-86
2022/02/01 15:26:33;;;;;;;25.27;14.38;;;6.90;99.90;;;;;;6099496;23;20013;-86